Time;durP1;ratioP1;P1;durP2;ratioP2;P2;SDS_P1;SDS_P2;PMS_P1;PMS_P2;Temp;Humidity;BMP_temperature;BMP_pressure;BME280_temperature;BME280_humidity;BME280_pressure;Samples;Min_cycle;Max_cycle;Signal;HPM_P1;HPM_P2
2024/02/22 00:00:07;;;;;;;1.55;0.88;;;;;;;;;;607266;23;773;-78
2024/02/22 00:00:23;;;;;;;2.05;0.90;;;;;;;;;;605709;23;1558;-78
2024/02/22 00:00:38;;;;;;;1.10;0.70;;;;;;;;;;605825;23;839;-78
2024/02/22 00:00:54;;;;;;;0.95;0.60;;;;;;;;;;606544;23;1086;-77
2024/02/22 00:01:10;;;;;;;1.80;0.63;;;;;;;;;;610635;23;1200;-76
2024/02/22 00:01:27;;;;;;;2.10;0.80;;;;;;;;;;608402;23;1224;-77
2024/02/22 00:01:42;;;;;;;1.05;0.65;;;;;;;;;;603540;23;1540;-77
2024/02/22 00:01:58;;;;;;;0.73;0.52;;;;;;;;;;609088;23;1172;-77
2024/02/22 00:02:14;;;;;;;0.55;0.47;;;;;;;;;;607347;23;1201;-78
2024/02/22 00:02:32;;;;;;;0.60;0.40;;;;;;;;;;608496;23;1019;-76
2024/02/22 00:02:47;;;;;;;0.75;0.50;;;;;;;;;;609688;23;1146;-79
2024/02/22 00:03:03;;;;;;;1.15;0.60;;;;;;;;;;610154;23;801;-76
2024/02/22 00:03:19;;;;;;;1.00;0.43;;;;;;;;;;609067;23;1421;-76
2024/02/22 00:03:35;;;;;;;0.60;0.40;;;;;;;;;;609388;23;780;-77
2024/02/22 00:04:00;;;;;;;0.50;0.43;;;;;;;;;;606230;23;1197;-76
2024/02/22 00:04:16;;;;;;;0.57;0.30;;;;;;;;;;607676;23;1167;-77
2024/02/22 00:04:32;;;;;;;0.73;0.40;;;;;;;;;;608117;23;1288;-78
2024/02/22 00:04:47;;;;;;;0.70;0.47;;;;;;;;;;608751;23;1272;-77
2024/02/22 00:05:03;;;;;;;0.50;0.40;;;;;;;;;;607307;23;1149;-77
2024/02/22 00:05:19;;;;;;;0.47;0.30;;;;;;;;;;610304;23;1388;-77
2024/02/22 00:05:35;;;;;;;0.95;0.52;;;;;;;;;;609346;23;777;-77
2024/02/22 00:05:50;;;;;;;1.03;0.60;;;;;;;;;;612048;23;1311;-76
2024/02/22 00:06:06;;;;;;;0.77;0.43;;;;;;;;;;609494;23;1345;-76
2024/02/22 00:06:21;;;;;;;0.70;0.40;;;;;;;;;;607216;23;1230;-75
2024/02/22 00:06:40;;;;;;;0.68;0.30;;;;;;;;;;605448;23;1208;-77
2024/02/22 00:06:56;;;;;;;0.80;0.45;;;;;;;;;;603452;23;1622;-77
2024/02/22 00:07:14;;;;;;;0.68;0.35;;;;;;;;;;606673;23;1079;-77
2024/02/22 00:07:30;;;;;;;1.95;0.32;;;;;;;;;;606843;23;1344;-77
2024/02/22 00:07:46;;;;;;;0.63;0.40;;;;;;;;;;602475;23;1338;-78
2024/02/22 00:08:02;;;;;;;0.43;0.30;;;;;;;;;;603815;23;860;-78
2024/02/22 00:08:18;;;;;;;0.45;0.40;;;;;;;;;;604504;23;1085;-76
2024/02/22 00:08:33;;;;;;;0.80;0.40;;;;;;;;;;605800;23;1188;-75
2024/02/22 00:08:49;;;;;;;1.00;0.50;;;;;;;;;;609036;23;1166;-77
2024/02/22 00:09:05;;;;;;;0.70;0.45;;;;;;;;;;613354;23;1007;-77
2024/02/22 00:09:20;;;;;;;0.60;0.30;;;;;;;;;;614944;23;1348;-78
2024/02/22 00:09:36;;;;;;;0.50;0.30;;;;;;;;;;614143;23;1169;-76
2024/02/22 00:09:53;;;;;;;0.43;0.40;;;;;;;;;;608324;23;1332;-77
2024/02/22 00:10:10;;;;;;;0.30;0.30;;;;;;;;;;608981;23;1067;-77
2024/02/22 00:10:30;;;;;;;0.38;0.38;;;;;;;;;;611743;23;1314;-77
2024/02/22 00:10:45;;;;;;;0.43;0.35;;;;;;;;;;605614;23;1334;-76
2024/02/22 00:11:01;;;;;;;0.40;0.40;;;;;;;;;;609729;23;1204;-77
2024/02/22 00:11:16;;;;;;;0.40;0.30;;;;;;;;;;609269;23;1170;-77
2024/02/22 00:11:32;;;;;;;0.50;0.37;;;;;;;;;;608430;23;1365;-76
2024/02/22 00:11:50;;;;;;;0.82;0.40;;;;;;;;;;608453;23;1356;-77
2024/02/22 00:12:06;;;;;;;0.93;0.40;;;;;;;;;;607257;23;1280;-76
2024/02/22 00:12:21;;;;;;;1.23;0.40;;;;;;;;;;606349;23;1297;-77
2024/02/22 00:12:39;;;;;;;1.00;0.40;;;;;;;;;;605586;23;835;-77
2024/02/22 00:12:56;;;;;;;0.80;0.40;;;;;;;;;;603129;23;1355;-76
2024/02/22 00:13:12;;;;;;;0.70;0.40;;;;;;;;;;602882;23;845;-77
2024/02/22 00:13:28;;;;;;;1.13;0.40;;;;;;;;;;604387;23;1264;-76
2024/02/22 00:13:45;;;;;;;1.20;0.40;;;;;;;;;;606644;23;1407;-76
2024/02/22 00:14:01;;;;;;;0.90;0.40;;;;;;;;;;610673;23;1429;-77
2024/02/22 00:14:18;;;;;;;1.15;0.40;;;;;;;;;;610881;23;1236;-77
2024/02/22 00:14:34;;;;;;;0.68;0.40;;;;;;;;;;611446;23;1007;-76
2024/02/22 00:14:51;;;;;;;0.55;0.30;;;;;;;;;;608172;23;1062;-77
2024/02/22 00:15:07;;;;;;;0.70;0.30;;;;;;;;;;608951;23;1377;-77
2024/02/22 00:15:23;;;;;;;0.50;0.30;;;;;;;;;;609197;23;855;-77
2024/02/22 00:15:39;;;;;;;0.50;0.40;;;;;;;;;;609226;23;1358;-76
2024/02/22 00:15:55;;;;;;;0.65;0.35;;;;;;;;;;611235;23;1105;-77
2024/02/22 00:16:11;;;;;;;1.17;0.40;;;;;;;;;;612535;23;1112;-77
2024/02/22 00:16:26;;;;;;;0.82;0.40;;;;;;;;;;615081;23;839;-77
2024/02/22 00:16:42;;;;;;;0.50;0.30;;;;;;;;;;610691;23;1280;-77
2024/02/22 00:16:57;;;;;;;0.47;0.28;;;;;;;;;;610112;23;1925;-75
2024/02/22 00:17:13;;;;;;;0.50;0.30;;;;;;;;;;610684;23;1129;-76
2024/02/22 00:17:29;;;;;;;0.50;0.30;;;;;;;;;;613355;23;1061;-78
2024/02/22 00:17:44;;;;;;;0.33;0.30;;;;;;;;;;613017;23;1054;-77
2024/02/22 00:18:02;;;;;;;0.68;0.40;;;;;;;;;;607580;23;1311;-77
2024/02/22 00:18:19;;;;;;;0.68;0.40;;;;;;;;;;607779;23;1002;-77
2024/02/22 00:18:34;;;;;;;0.50;0.40;;;;;;;;;;607897;23;763;-77
2024/02/22 00:18:50;;;;;;;0.60;0.40;;;;;;;;;;611827;23;823;-78
2024/02/22 00:19:05;;;;;;;0.88;0.40;;;;;;;;;;610288;23;1108;-77
2024/02/22 00:19:21;;;;;;;0.77;0.40;;;;;;;;;;608102;23;1200;-77
2024/02/22 00:19:37;;;;;;;0.50;0.40;;;;;;;;;;609266;23;1307;-76
2024/02/22 00:19:52;;;;;;;0.70;0.40;;;;;;;;;;612074;23;1260;-76
2024/02/22 00:20:08;;;;;;;0.67;0.40;;;;;;;;;;613267;23;1307;-77
2024/02/22 00:20:24;;;;;;;0.50;0.40;;;;;;;;;;615174;23;1511;-77
2024/02/22 00:20:40;;;;;;;0.68;0.40;;;;;;;;;;613156;23;1032;-75
2024/02/22 00:20:55;;;;;;;0.80;0.40;;;;;;;;;;617426;23;1046;-76
2024/02/22 00:21:13;;;;;;;0.80;0.33;;;;;;;;;;613495;23;1184;-77
2024/02/22 00:21:29;;;;;;;0.60;0.40;;;;;;;;;;613271;23;1327;-77
2024/02/22 00:21:44;;;;;;;0.60;0.40;;;;;;;;;;615120;23;1248;-78
2024/02/22 00:22:00;;;;;;;0.57;0.40;;;;;;;;;;615832;23;1302;-77
2024/02/22 00:22:16;;;;;;;0.40;0.40;;;;;;;;;;613557;23;1136;-76
2024/02/22 00:22:31;;;;;;;0.35;0.30;;;;;;;;;;611477;23;1134;-77
2024/02/22 00:22:47;;;;;;;0.53;0.33;;;;;;;;;;612200;23;1152;-77
2024/02/22 00:23:05;;;;;;;0.60;0.40;;;;;;;;;;613630;23;1311;-76
2024/02/22 00:23:21;;;;;;;0.40;0.30;;;;;;;;;;611489;23;1395;-76
2024/02/22 00:23:36;;;;;;;0.60;0.40;;;;;;;;;;612042;23;1184;-77
2024/02/22 00:23:52;;;;;;;0.70;0.40;;;;;;;;;;611686;23;1104;-77
2024/02/22 00:24:07;;;;;;;0.40;0.40;;;;;;;;;;610949;23;1204;-77
2024/02/22 00:24:23;;;;;;;0.50;0.40;;;;;;;;;;611282;23;1279;-77
2024/02/22 00:24:39;;;;;;;0.70;0.40;;;;;;;;;;605600;23;1230;-78
2024/02/22 00:24:54;;;;;;;1.20;0.40;;;;;;;;;;607720;23;729;-77
2024/02/22 00:25:10;;;;;;;1.00;0.40;;;;;;;;;;608984;23;1440;-77
2024/02/22 00:25:25;;;;;;;0.55;0.40;;;;;;;;;;608545;23;1058;-78
2024/02/22 00:25:41;;;;;;;0.60;0.30;;;;;;;;;;607528;23;1067;-78
2024/02/22 00:25:56;;;;;;;1.40;0.40;;;;;;;;;;611563;23;824;-78
2024/02/22 00:26:13;;;;;;;1.80;0.50;;;;;;;;;;610243;23;1109;-77
2024/02/22 00:26:28;;;;;;;1.05;0.40;;;;;;;;;;605431;23;1238;-78
2024/02/22 00:26:45;;;;;;;0.70;0.30;;;;;;;;;;606863;23;1295;-78
2024/02/22 00:27:00;;;;;;;0.60;0.28;;;;;;;;;;608801;23;1406;-77
2024/02/22 00:27:16;;;;;;;0.40;0.30;;;;;;;;;;607817;23;1161;-78
2024/02/22 00:27:33;;;;;;;0.57;0.40;;;;;;;;;;609154;23;1244;-79
2024/02/22 00:27:49;;;;;;;0.47;0.40;;;;;;;;;;611509;23;1011;-78
2024/02/22 00:28:04;;;;;;;0.85;0.40;;;;;;;;;;610704;23;1142;-77
2024/02/22 00:28:20;;;;;;;0.90;0.50;;;;;;;;;;610312;23;1699;-78
2024/02/22 00:28:36;;;;;;;0.70;0.47;;;;;;;;;;609880;23;789;-77
2024/02/22 00:28:51;;;;;;;1.05;0.40;;;;;;;;;;603662;23;1208;-76
2024/02/22 00:29:07;;;;;;;0.70;0.30;;;;;;;;;;601235;23;1160;-77
2024/02/22 00:29:23;;;;;;;1.60;0.30;;;;;;;;;;606006;23;1442;-77
2024/02/22 00:29:40;;;;;;;2.03;0.30;;;;;;;;;;607447;23;1068;-77
2024/02/22 00:29:56;;;;;;;0.88;0.30;;;;;;;;;;606098;23;1301;-77
2024/02/22 00:30:14;;;;;;;0.70;0.30;;;;;;;;;;607703;23;775;-77
2024/02/22 00:30:30;;;;;;;0.80;0.38;;;;;;;;;;608518;23;1425;-77
2024/02/22 00:30:46;;;;;;;0.90;0.47;;;;;;;;;;606329;23;1190;-77
2024/02/22 00:31:01;;;;;;;1.10;0.50;;;;;;;;;;611831;23;1184;-77
2024/02/22 00:31:17;;;;;;;1.00;0.50;;;;;;;;;;613046;23;1185;-77
2024/02/22 00:31:33;;;;;;;0.95;0.40;;;;;;;;;;608256;23;1222;-77
2024/02/22 00:31:48;;;;;;;1.17;0.40;;;;;;;;;;606627;23;1180;-77
2024/02/22 00:32:04;;;;;;;0.80;0.40;;;;;;;;;;606808;23;1164;-76
2024/02/22 00:32:19;;;;;;;0.70;0.40;;;;;;;;;;606293;23;1387;-78
2024/02/22 00:32:36;;;;;;;0.70;0.40;;;;;;;;;;605185;23;1218;-78
2024/02/22 00:32:52;;;;;;;0.60;0.40;;;;;;;;;;606061;23;1362;-76
2024/02/22 00:33:07;;;;;;;0.68;0.35;;;;;;;;;;606108;23;1109;-77
2024/02/22 00:33:23;;;;;;;0.60;0.37;;;;;;;;;;609207;23;1075;-79
2024/02/22 00:33:38;;;;;;;0.63;0.40;;;;;;;;;;608752;23;827;-76
2024/02/22 00:33:54;;;;;;;0.60;0.40;;;;;;;;;;610920;23;1154;-75
2024/02/22 00:34:10;;;;;;;0.40;0.40;;;;;;;;;;607668;23;812;-78
2024/02/22 00:34:25;;;;;;;0.50;0.33;;;;;;;;;;607629;23;1055;-76
2024/02/22 00:34:41;;;;;;;0.63;0.30;;;;;;;;;;605218;23;1245;-77
2024/02/22 00:34:57;;;;;;;0.70;0.40;;;;;;;;;;606347;23;1184;-77
2024/02/22 00:35:12;;;;;;;0.50;0.40;;;;;;;;;;610196;23;957;-77
2024/02/22 00:35:28;;;;;;;0.50;0.40;;;;;;;;;;608336;23;1161;-78
2024/02/22 00:35:44;;;;;;;0.50;0.40;;;;;;;;;;608527;23;1178;-77
2024/02/22 00:36:00;;;;;;;0.40;0.30;;;;;;;;;;605993;23;1314;-78
2024/02/22 00:36:17;;;;;;;0.40;0.30;;;;;;;;;;606187;23;800;-77
2024/02/22 00:36:42;;;;;;;0.73;0.30;;;;;;;;;;606661;23;797;-77
2024/02/22 00:36:58;;;;;;;0.95;0.38;;;;;;;;;;608177;23;1917;-78
2024/02/22 00:37:13;;;;;;;0.50;0.40;;;;;;;;;;609487;23;1205;-77
2024/02/22 00:37:29;;;;;;;0.40;0.32;;;;;;;;;;611730;23;951;-78
2024/02/22 00:37:45;;;;;;;1.17;0.37;;;;;;;;;;607277;23;1332;-78
2024/02/22 00:38:00;;;;;;;1.35;0.40;;;;;;;;;;611846;23;997;-77
2024/02/22 00:38:16;;;;;;;1.20;0.50;;;;;;;;;;610423;23;1302;-77
2024/02/22 00:38:32;;;;;;;1.63;0.50;;;;;;;;;;608935;23;1217;-76
2024/02/22 00:38:47;;;;;;;1.00;0.40;;;;;;;;;;608565;23;1375;-77
2024/02/22 00:39:03;;;;;;;0.38;0.30;;;;;;;;;;609019;23;1209;-77
2024/02/22 00:39:19;;;;;;;0.70;0.30;;;;;;;;;;608287;23;1018;-78
2024/02/22 00:39:34;;;;;;;0.93;0.40;;;;;;;;;;606029;23;1104;-77
2024/02/22 00:39:50;;;;;;;0.70;0.40;;;;;;;;;;612774;23;952;-78
2024/02/22 00:40:08;;;;;;;0.73;0.40;;;;;;;;;;612246;23;1353;-77
2024/02/22 00:40:23;;;;;;;0.80;0.40;;;;;;;;;;611495;23;813;-78
2024/02/22 00:40:39;;;;;;;0.90;0.40;;;;;;;;;;607974;23;1268;-76
2024/02/22 00:40:54;;;;;;;1.00;0.40;;;;;;;;;;610133;23;1169;-77
2024/02/22 00:41:10;;;;;;;0.60;0.40;;;;;;;;;;605648;23;1281;-76
2024/02/22 00:41:26;;;;;;;0.50;0.30;;;;;;;;;;605205;23;1055;-77
2024/02/22 00:41:41;;;;;;;0.57;0.30;;;;;;;;;;605102;23;1297;-77
2024/02/22 00:41:57;;;;;;;0.50;0.40;;;;;;;;;;608596;23;918;-77
2024/02/22 00:42:13;;;;;;;0.43;0.37;;;;;;;;;;605305;23;1056;-77
2024/02/22 00:42:28;;;;;;;0.50;0.30;;;;;;;;;;605701;23;1297;-77
2024/02/22 00:42:44;;;;;;;0.57;0.30;;;;;;;;;;607686;23;1204;-77
2024/02/22 00:42:59;;;;;;;0.63;0.30;;;;;;;;;;612760;23;1174;-77
2024/02/22 00:43:15;;;;;;;1.13;0.43;;;;;;;;;;610994;23;1272;-77
2024/02/22 00:43:30;;;;;;;1.30;0.47;;;;;;;;;;613643;23;1142;-77
2024/02/22 00:43:46;;;;;;;0.88;0.45;;;;;;;;;;611151;23;1331;-78
2024/02/22 00:44:02;;;;;;;0.60;0.43;;;;;;;;;;608257;23;1079;-75
2024/02/22 00:44:17;;;;;;;0.50;0.40;;;;;;;;;;604944;23;1179;-75
2024/02/22 00:44:33;;;;;;;0.40;0.30;;;;;;;;;;605839;23;757;-77
2024/02/22 00:44:48;;;;;;;0.33;0.23;;;;;;;;;;603097;23;1150;-77
2024/02/22 00:45:04;;;;;;;0.45;0.20;;;;;;;;;;603613;23;742;-76
2024/02/22 00:45:20;;;;;;;0.63;0.30;;;;;;;;;;604323;23;1150;-77
2024/02/22 00:45:35;;;;;;;0.53;0.40;;;;;;;;;;603647;23;1118;-76
2024/02/22 00:45:51;;;;;;;0.40;0.40;;;;;;;;;;606657;23;824;-78
2024/02/22 00:46:07;;;;;;;0.47;0.37;;;;;;;;;;609479;23;940;-76
2024/02/22 00:46:22;;;;;;;0.52;0.40;;;;;;;;;;611888;23;756;-77
2024/02/22 00:46:38;;;;;;;0.70;0.40;;;;;;;;;;608060;23;1287;-77
2024/02/22 00:46:54;;;;;;;0.80;0.37;;;;;;;;;;609396;23;1224;-77
2024/02/22 00:47:09;;;;;;;0.88;0.38;;;;;;;;;;610332;23;971;-77
2024/02/22 00:47:25;;;;;;;0.60;0.38;;;;;;;;;;611402;23;863;-77
2024/02/22 00:47:41;;;;;;;1.20;0.40;;;;;;;;;;608045;23;1192;-76
2024/02/22 00:47:58;;;;;;;1.40;0.40;;;;;;;;;;606907;23;1218;-77
2024/02/22 00:48:14;;;;;;;0.68;0.30;;;;;;;;;;609720;23;1451;-78
2024/02/22 00:48:29;;;;;;;0.50;0.30;;;;;;;;;;606206;23;1283;-78
2024/02/22 00:48:45;;;;;;;0.47;0.30;;;;;;;;;;609710;23;1249;-78
2024/02/22 00:49:02;;;;;;;0.60;0.40;;;;;;;;;;609919;23;761;-78
2024/02/22 00:49:17;;;;;;;0.70;0.30;;;;;;;;;;609490;23;1362;-78
2024/02/22 00:49:33;;;;;;;0.75;0.30;;;;;;;;;;605390;23;1040;-78
2024/02/22 00:49:49;;;;;;;0.57;0.30;;;;;;;;;;608605;23;1003;-78
2024/02/22 00:50:05;;;;;;;0.40;0.30;;;;;;;;;;609148;23;1366;-78
2024/02/22 00:50:21;;;;;;;0.30;0.30;;;;;;;;;;607376;23;1192;-78
2024/02/22 00:50:36;;;;;;;0.50;0.30;;;;;;;;;;608814;23;1192;-76
2024/02/22 00:50:54;;;;;;;0.70;0.30;;;;;;;;;;605709;23;1235;-77
2024/02/22 00:51:10;;;;;;;0.60;0.35;;;;;;;;;;607018;23;1189;-77
2024/02/22 00:51:25;;;;;;;0.37;0.30;;;;;;;;;;606170;23;1359;-77
2024/02/22 00:51:41;;;;;;;0.50;0.30;;;;;;;;;;602179;23;1235;-77
2024/02/22 00:51:56;;;;;;;0.63;0.30;;;;;;;;;;603608;23;852;-77
2024/02/22 00:52:12;;;;;;;0.80;0.40;;;;;;;;;;605353;23;816;-78
2024/02/22 00:52:28;;;;;;;0.47;0.30;;;;;;;;;;607044;23;1323;-78
2024/02/22 00:52:44;;;;;;;0.52;0.30;;;;;;;;;;608359;23;1277;-77
2024/02/22 00:53:00;;;;;;;1.00;0.30;;;;;;;;;;606303;23;1288;-78
2024/02/22 00:53:16;;;;;;;0.70;0.30;;;;;;;;;;605297;23;1207;-77
2024/02/22 00:53:32;;;;;;;0.50;0.40;;;;;;;;;;603907;23;1308;-78
2024/02/22 00:53:47;;;;;;;0.87;0.40;;;;;;;;;;602898;23;1177;-78
2024/02/22 00:54:03;;;;;;;0.85;0.30;;;;;;;;;;606404;23;1276;-77
2024/02/22 00:54:18;;;;;;;0.67;0.30;;;;;;;;;;608398;23;1043;-78
2024/02/22 00:54:34;;;;;;;0.70;0.30;;;;;;;;;;604638;23;1125;-78
2024/02/22 00:54:50;;;;;;;0.50;0.30;;;;;;;;;;609243;23;1268;-79
2024/02/22 00:55:06;;;;;;;0.70;0.30;;;;;;;;;;608908;23;1182;-78
2024/02/22 00:55:22;;;;;;;0.55;0.30;;;;;;;;;;608189;23;1100;-78
2024/02/22 00:55:39;;;;;;;0.30;0.30;;;;;;;;;;606992;23;934;-78
2024/02/22 00:55:54;;;;;;;0.60;0.40;;;;;;;;;;610779;23;757;-78
2024/02/22 00:56:10;;;;;;;1.40;0.30;;;;;;;;;;609003;23;1044;-78
2024/02/22 00:56:25;;;;;;;0.90;0.20;;;;;;;;;;609841;23;744;-78
2024/02/22 00:56:41;;;;;;;0.70;0.30;;;;;;;;;;608161;23;1193;-78
2024/02/22 00:56:56;;;;;;;1.23;0.30;;;;;;;;;;606825;23;1193;-79
2024/02/22 00:57:12;;;;;;;0.90;0.30;;;;;;;;;;610546;23;2124;-78
2024/02/22 00:57:27;;;;;;;0.55;0.32;;;;;;;;;;608391;23;1085;-77
2024/02/22 00:57:43;;;;;;;0.70;0.40;;;;;;;;;;605598;23;1086;-77
2024/02/22 00:57:59;;;;;;;0.60;0.40;;;;;;;;;;602755;23;1249;-77
2024/02/22 00:58:14;;;;;;;0.43;0.30;;;;;;;;;;603568;23;1340;-78
2024/02/22 00:58:30;;;;;;;0.50;0.30;;;;;;;;;;602846;23;1206;-77
2024/02/22 00:58:47;;;;;;;0.77;0.38;;;;;;;;;;605262;23;1042;-76
2024/02/22 00:59:03;;;;;;;0.82;0.50;;;;;;;;;;606016;23;891;-77
2024/02/22 00:59:18;;;;;;;0.60;0.40;;;;;;;;;;609371;23;1261;-78
2024/02/22 00:59:34;;;;;;;0.73;0.40;;;;;;;;;;609870;23;886;-77
2024/02/22 00:59:50;;;;;;;0.70;0.30;;;;;;;;;;611743;23;1006;-76
2024/02/22 01:00:07;;;;;;;0.47;0.33;;;;;;;;;;613399;23;777;-76
2024/02/22 01:00:22;;;;;;;0.80;0.45;;;;;;;;;;615008;23;855;-77
2024/02/22 01:00:38;;;;;;;0.68;0.30;;;;;;;;;;610566;23;1072;-77
2024/02/22 01:00:54;;;;;;;0.43;0.30;;;;;;;;;;607825;23;1111;-76
2024/02/22 01:01:10;;;;;;;0.65;0.40;;;;;;;;;;606173;23;1228;-77
2024/02/22 01:01:26;;;;;;;0.60;0.30;;;;;;;;;;607969;23;1401;-77
2024/02/22 01:01:42;;;;;;;0.40;0.40;;;;;;;;;;604274;23;1241;-77
2024/02/22 01:01:58;;;;;;;0.50;0.30;;;;;;;;;;605366;23;1388;-77
2024/02/22 01:02:13;;;;;;;0.50;0.20;;;;;;;;;;605825;23;812;-77
2024/02/22 01:02:29;;;;;;;0.43;0.25;;;;;;;;;;608705;23;1082;-77
2024/02/22 01:02:44;;;;;;;0.45;0.30;;;;;;;;;;610879;23;1230;-78
2024/02/22 01:03:01;;;;;;;0.70;0.30;;;;;;;;;;609510;23;1055;-77
2024/02/22 01:03:17;;;;;;;0.52;0.30;;;;;;;;;;609958;23;1606;-77
2024/02/22 01:03:33;;;;;;;0.32;0.30;;;;;;;;;;607963;23;1215;-78
2024/02/22 01:03:48;;;;;;;0.43;0.38;;;;;;;;;;609132;23;1149;-77
2024/02/22 01:04:04;;;;;;;0.30;0.30;;;;;;;;;;609336;23;1343;-76
2024/02/22 01:04:20;;;;;;;0.30;0.30;;;;;;;;;;606354;23;991;-76
2024/02/22 01:04:37;;;;;;;0.70;0.30;;;;;;;;;;605198;23;1515;-76
2024/02/22 01:04:53;;;;;;;0.95;0.30;;;;;;;;;;606089;23;808;-76
2024/02/22 01:05:09;;;;;;;0.82;0.30;;;;;;;;;;606216;23;841;-77
2024/02/22 01:05:26;;;;;;;0.45;0.30;;;;;;;;;;605802;23;761;-77
2024/02/22 01:05:41;;;;;;;0.30;0.30;;;;;;;;;;606861;23;1395;-77
2024/02/22 01:05:57;;;;;;;0.50;0.30;;;;;;;;;;609680;23;931;-77
2024/02/22 01:06:14;;;;;;;0.65;0.30;;;;;;;;;;609126;23;1119;-76
2024/02/22 01:06:30;;;;;;;0.82;0.30;;;;;;;;;;612213;23;1288;-76
2024/02/22 01:06:46;;;;;;;0.65;0.30;;;;;;;;;;614954;23;1232;-76
2024/02/22 01:07:02;;;;;;;0.55;0.20;;;;;;;;;;615145;23;1284;-77
2024/02/22 01:07:17;;;;;;;1.40;0.30;;;;;;;;;;615295;23;756;-76
2024/02/22 01:07:33;;;;;;;2.00;0.38;;;;;;;;;;614420;23;946;-77
2024/02/22 01:07:48;;;;;;;1.10;0.30;;;;;;;;;;612212;23;1022;-76
2024/02/22 01:08:04;;;;;;;0.65;0.25;;;;;;;;;;609860;23;867;-76
2024/02/22 01:08:20;;;;;;;0.85;0.30;;;;;;;;;;606709;23;1178;-77
2024/02/22 01:08:36;;;;;;;1.10;0.30;;;;;;;;;;603112;23;1316;-76
2024/02/22 01:08:52;;;;;;;0.90;0.20;;;;;;;;;;607950;23;1311;-76
2024/02/22 01:09:10;;;;;;;0.30;0.10;;;;;;;;;;609652;23;1172;-77
2024/02/22 01:09:25;;;;;;;0.70;0.20;;;;;;;;;;606447;23;1371;-77
2024/02/22 01:09:41;;;;;;;0.37;0.27;;;;;;;;;;608746;23;1065;-77
2024/02/22 01:09:57;;;;;;;0.40;0.30;;;;;;;;;;611754;23;1145;-77
2024/02/22 01:10:12;;;;;;;0.70;0.30;;;;;;;;;;611786;23;749;-77
2024/02/22 01:10:28;;;;;;;1.10;0.40;;;;;;;;;;613256;23;769;-77
2024/02/22 01:10:44;;;;;;;0.70;0.40;;;;;;;;;;613777;23;716;-77
2024/02/22 01:10:59;;;;;;;0.30;0.30;;;;;;;;;;613833;23;763;-77
2024/02/22 01:11:15;;;;;;;0.40;0.40;;;;;;;;;;612630;23;1028;-77
2024/02/22 01:11:30;;;;;;;0.90;0.60;;;;;;;;;;611512;23;1240;-76
2024/02/22 01:11:47;;;;;;;0.97;0.77;;;;;;;;;;613015;23;943;-76
2024/02/22 01:12:03;;;;;;;1.52;0.80;;;;;;;;;;612744;23;768;-77
2024/02/22 01:12:19;;;;;;;2.13;0.77;;;;;;;;;;613738;23;1200;-76
2024/02/22 01:12:44;;;;;;;1.52;0.80;;;;;;;;;;611614;23;1221;-77
2024/02/22 01:13:00;;;;;;;1.80;1.35;;;;;;;;;;610504;23;1248;-77
2024/02/22 01:13:16;;;;;;;2.47;1.75;;;;;;;;;;613326;23;1279;-78
2024/02/22 01:13:31;;;;;;;2.97;2.30;;;;;;;;;;612529;23;1296;-77
2024/02/22 01:13:48;;;;;;;3.60;2.60;;;;;;;;;;613435;23;839;-77
2024/02/22 01:14:04;;;;;;;4.55;3.00;;;;;;;;;;611552;23;1358;-76
2024/02/22 01:14:20;;;;;;;3.85;2.53;;;;;;;;;;611015;23;1420;-77
2024/02/22 01:14:35;;;;;;;2.35;1.50;;;;;;;;;;607717;23;1448;-77
2024/02/22 01:14:51;;;;;;;2.20;1.50;;;;;;;;;;609901;23;789;-76
2024/02/22 01:15:07;;;;;;;3.17;2.33;;;;;;;;;;607928;23;1228;-77
2024/02/22 01:15:23;;;;;;;6.38;4.90;;;;;;;;;;606687;23;1411;-78
2024/02/22 01:15:38;;;;;;;8.70;6.60;;;;;;;;;;600850;23;1346;-77
2024/02/22 01:15:54;;;;;;;7.47;5.33;;;;;;;;;;606534;23;1285;-77
2024/02/22 01:16:10;;;;;;;4.72;3.10;;;;;;;;;;606139;23;740;-78
2024/02/22 01:16:25;;;;;;;3.53;2.40;;;;;;;;;;608683;23;967;-77
2024/02/22 01:16:43;;;;;;;3.10;2.40;;;;;;;;;;607988;23;1200;-78
2024/02/22 01:16:58;;;;;;;1.70;1.40;;;;;;;;;;614836;23;1086;-77
2024/02/22 01:17:14;;;;;;;0.87;0.70;;;;;;;;;;613469;23;2012;-77
2024/02/22 01:17:30;;;;;;;1.20;0.70;;;;;;;;;;613339;23;765;-76
2024/02/22 01:17:47;;;;;;;1.40;0.70;;;;;;;;;;609351;23;1208;-76
2024/02/22 01:18:02;;;;;;;2.45;2.05;;;;;;;;;;613890;23;1469;-76
2024/02/22 01:18:18;;;;;;;4.03;3.43;;;;;;;;;;612405;23;1259;-77
2024/02/22 01:18:34;;;;;;;3.42;3.05;;;;;;;;;;609996;23;1180;-77
2024/02/22 01:18:49;;;;;;;2.65;2.20;;;;;;;;;;612090;23;1423;-77
2024/02/22 01:19:07;;;;;;;4.43;3.40;;;;;;;;;;611231;23;1145;-76
2024/02/22 01:19:23;;;;;;;5.35;4.68;;;;;;;;;;613700;23;1354;-78
2024/02/22 01:19:39;;;;;;;3.00;2.57;;;;;;;;;;606516;23;1327;-76
2024/02/22 01:19:54;;;;;;;3.05;2.30;;;;;;;;;;610469;23;1415;-77
2024/02/22 01:20:10;;;;;;;2.70;1.90;;;;;;;;;;613923;23;1008;-77
2024/02/22 01:20:26;;;;;;;1.58;1.15;;;;;;;;;;613619;23;1268;-77
2024/02/22 01:20:42;;;;;;;0.60;0.50;;;;;;;;;;609572;23;1305;-77
2024/02/22 01:20:57;;;;;;;0.82;0.70;;;;;;;;;;611067;23;1200;-77
2024/02/22 01:21:13;;;;;;;0.90;0.80;;;;;;;;;;609161;23;1197;-76
2024/02/22 01:21:28;;;;;;;0.63;0.60;;;;;;;;;;610382;23;1243;-78
2024/02/22 01:21:44;;;;;;;0.90;0.70;;;;;;;;;;610319;23;1186;-79
2024/02/22 01:22:00;;;;;;;1.23;0.70;;;;;;;;;;614408;23;1282;-77
2024/02/22 01:22:15;;;;;;;1.17;0.50;;;;;;;;;;614027;23;1204;-77
2024/02/22 01:22:31;;;;;;;1.00;0.40;;;;;;;;;;612770;23;798;-77
2024/02/22 01:22:46;;;;;;;0.75;0.47;;;;;;;;;;610122;23;1152;-77
2024/02/22 01:23:06;;;;;;;1.60;1.50;;;;;;;;;;611172;23;1305;-77
2024/02/22 01:23:21;;;;;;;3.30;3.00;;;;;;;;;;607617;23;1256;-77
2024/02/22 01:23:37;;;;;;;2.40;2.03;;;;;;;;;;610659;23;997;-77
2024/02/22 01:23:53;;;;;;;1.52;1.35;;;;;;;;;;608626;23;1440;-76
2024/02/22 01:24:08;;;;;;;1.15;0.98;;;;;;;;;;607815;23;1200;-74
2024/02/22 01:24:24;;;;;;;0.60;0.50;;;;;;;;;;604274;23;1277;-75
2024/02/22 01:24:40;;;;;;;0.70;0.43;;;;;;;;;;605829;23;1367;-76
2024/02/22 01:24:56;;;;;;;0.93;0.60;;;;;;;;;;606548;23;919;-76
2024/02/22 01:25:11;;;;;;;0.70;0.65;;;;;;;;;;611797;23;1196;-76
2024/02/22 01:25:27;;;;;;;0.60;0.60;;;;;;;;;;611848;23;1337;-75
2024/02/22 01:25:43;;;;;;;0.70;0.70;;;;;;;;;;608322;23;1323;-75
2024/02/22 01:25:58;;;;;;;1.00;0.90;;;;;;;;;;609422;23;855;-76
2024/02/22 01:26:17;;;;;;;0.90;0.63;;;;;;;;;;609992;23;1208;-76
2024/02/22 01:26:32;;;;;;;0.93;0.50;;;;;;;;;;609386;23;1577;-76
2024/02/22 01:26:48;;;;;;;0.77;0.60;;;;;;;;;;606314;23;1237;-76
2024/02/22 01:27:06;;;;;;;0.70;0.70;;;;;;;;;;607110;23;1135;-76
2024/02/22 01:27:21;;;;;;;0.57;0.50;;;;;;;;;;606567;23;1074;-76
2024/02/22 01:27:37;;;;;;;0.70;0.50;;;;;;;;;;605342;23;1244;-76
2024/02/22 01:27:53;;;;;;;1.03;0.80;;;;;;;;;;605870;23;1416;-76
2024/02/22 01:28:12;;;;;;;1.35;0.88;;;;;;;;;;605467;23;1090;-76
2024/02/22 01:28:28;;;;;;;1.70;1.35;;;;;;;;;;605901;23;1550;-77
2024/02/22 01:28:43;;;;;;;2.00;1.70;;;;;;;;;;605419;23;1273;-77
2024/02/22 01:28:59;;;;;;;1.48;1.13;;;;;;;;;;607009;23;980;-76
2024/02/22 01:29:15;;;;;;;1.43;0.97;;;;;;;;;;606065;23;1238;-77
2024/02/22 01:29:30;;;;;;;1.67;1.00;;;;;;;;;;606934;23;863;-77
2024/02/22 01:29:46;;;;;;;1.53;0.77;;;;;;;;;;605686;23;993;-75
2024/02/22 01:30:02;;;;;;;0.90;0.60;;;;;;;;;;606954;23;860;-75
2024/02/22 01:30:18;;;;;;;0.63;0.40;;;;;;;;;;607830;23;1146;-76
2024/02/22 01:30:33;;;;;;;0.50;0.37;;;;;;;;;;607862;23;1006;-77
2024/02/22 01:30:49;;;;;;;0.35;0.30;;;;;;;;;;607021;23;1358;-75
2024/02/22 01:31:05;;;;;;;0.45;0.20;;;;;;;;;;606388;23;1222;-76
2024/02/22 01:31:21;;;;;;;0.55;0.30;;;;;;;;;;606315;23;1109;-75
2024/02/22 01:31:37;;;;;;;0.50;0.40;;;;;;;;;;606010;23;978;-77
2024/02/22 01:31:52;;;;;;;0.20;0.20;;;;;;;;;;608448;23;1215;-77
2024/02/22 01:32:08;;;;;;;0.30;0.20;;;;;;;;;;608472;23;1080;-76
2024/02/22 01:32:23;;;;;;;0.40;0.30;;;;;;;;;;611684;23;1322;-77
2024/02/22 01:32:39;;;;;;;0.50;0.40;;;;;;;;;;611238;23;846;-77
2024/02/22 01:32:55;;;;;;;0.45;0.30;;;;;;;;;;610897;23;726;-76
2024/02/22 01:33:12;;;;;;;0.97;0.27;;;;;;;;;;611112;23;764;-76
2024/02/22 01:33:27;;;;;;;1.23;0.30;;;;;;;;;;609348;23;1338;-76
2024/02/22 01:33:44;;;;;;;0.70;0.20;;;;;;;;;;609587;23;987;-75
2024/02/22 01:34:01;;;;;;;0.70;0.20;;;;;;;;;;610092;23;1319;-77
2024/02/22 01:34:17;;;;;;;0.70;0.25;;;;;;;;;;609111;23;1247;-77
2024/02/22 01:34:33;;;;;;;0.40;0.30;;;;;;;;;;607459;23;1292;-76
2024/02/22 01:34:48;;;;;;;0.60;0.32;;;;;;;;;;608126;23;1169;-76
2024/02/22 01:35:05;;;;;;;0.88;0.35;;;;;;;;;;609193;23;1240;-76
2024/02/22 01:35:21;;;;;;;0.80;0.50;;;;;;;;;;614761;23;1086;-77
2024/02/22 01:35:36;;;;;;;0.57;0.47;;;;;;;;;;617801;23;1364;-76
2024/02/22 01:35:53;;;;;;;0.47;0.30;;;;;;;;;;611876;23;1452;-76
2024/02/22 01:36:10;;;;;;;0.70;0.25;;;;;;;;;;609095;23;1425;-76
2024/02/22 01:36:25;;;;;;;0.60;0.20;;;;;;;;;;611573;23;991;-76
2024/02/22 01:36:41;;;;;;;0.20;0.20;;;;;;;;;;608397;23;1227;-77
2024/02/22 01:36:57;;;;;;;0.20;0.20;;;;;;;;;;605345;23;1154;-77
2024/02/22 01:37:12;;;;;;;0.47;0.30;;;;;;;;;;602627;23;1963;-76
2024/02/22 01:37:28;;;;;;;0.80;0.57;;;;;;;;;;605802;23;1342;-76
2024/02/22 01:37:43;;;;;;;0.97;0.60;;;;;;;;;;605164;23;859;-75
2024/02/22 01:37:59;;;;;;;2.05;1.58;;;;;;;;;;611433;23;1275;-76
2024/02/22 01:38:15;;;;;;;5.73;4.63;;;;;;;;;;606893;23;1122;-76
2024/02/22 01:38:30;;;;;;;5.35;4.28;;;;;;;;;;604938;23;1327;-77
2024/02/22 01:38:46;;;;;;;2.58;1.98;;;;;;;;;;603042;23;1294;-76
2024/02/22 01:39:04;;;;;;;3.23;2.37;;;;;;;;;;606217;23;894;-76